Time;durP1;ratioP1;P1;durP2;ratioP2;P2;SDS_P1;SDS_P2;PMS_P1;PMS_P2;Temp;Humidity;BMP_temperature;BMP_pressure;BME280_temperature;BME280_humidity;BME280_pressure;Samples;Min_cycle;Max_cycle;Signal;HPM_P1;HPM_P2
2023/11/03 00:00:32;;;;;;;20.00;11.00;;;;;;;10.78;86.58;99915.94;123060;1108;104293;-82
2023/11/03 00:03:24;;;;;;;21.85;11.30;;;;;;;10.77;86.96;99914.16;123229;1109;104255;-80
2023/11/03 00:05:56;;;;;;;23.83;12.63;;;;;;;10.77;86.85;99908.91;123121;1109;104370;-84
2023/11/03 00:08:27;;;;;;;22.63;11.40;;;;;;;10.76;87.17;99899.24;123285;1109;104291;-83
2023/11/03 00:11:00;;;;;;;24.35;11.85;;;;;;;10.77;87.03;99908.02;123203;1109;104259;-81
2023/11/03 00:13:31;;;;;;;22.85;12.00;;;;;;;10.77;86.87;99908.91;123316;1109;104323;-82
2023/11/03 00:16:03;;;;;;;23.17;12.30;;;;;;;10.78;87.21;99909.78;123079;1109;104338;-81
2023/11/03 00:18:34;;;;;;;22.10;11.43;;;;;;;10.78;86.91;99896.66;123051;1109;104280;-82
2023/11/03 00:21:06;;;;;;;24.23;12.37;;;;;;;10.78;87.01;99905.44;123071;1109;104257;-81
2023/11/03 00:23:37;;;;;;;22.47;11.77;;;;;;;10.79;87.22;99901.95;123243;1109;104314;-81
2023/11/03 00:26:12;;;;;;;21.37;11.63;;;;;;;10.80;86.66;99908.11;123040;1109;104409;-82
2023/11/03 00:28:44;;;;;;;23.07;12.37;;;;;;;10.82;87.06;99902.89;123986;1109;104256;-81
2023/11/03 00:31:15;;;;;;;22.50;11.37;;;;;;;10.82;87.05;99911.64;124409;1109;104275;-79
2023/11/03 00:33:47;;;;;;;23.37;11.93;;;;;;;10.83;86.80;99902.93;124567;1108;104290;-82
2023/11/03 00:36:19;;;;;;;24.70;11.83;;;;;;;10.85;86.90;99906.47;124021;1109;104401;-82
2023/11/03 00:38:50;;;;;;;24.00;12.40;;;;;;;10.86;86.75;99902.09;123152;1109;104373;-82
2023/11/03 00:41:22;;;;;;;20.97;11.53;;;;;;;10.86;87.03;99897.76;123410;1109;104428;-81
2023/11/03 00:43:53;;;;;;;23.63;11.63;;;;;;;10.88;86.96;99903.05;123095;1109;104261;-83
2023/11/03 00:46:25;;;;;;;22.60;12.45;;;;;;;10.87;87.08;99902.14;123039;1109;104253;-80
2023/11/03 00:48:58;;;;;;;23.27;12.53;;;;;;;10.85;87.09;99906.47;123161;1108;104242;-81
2023/11/03 00:51:29;;;;;;;23.80;12.07;;;;;;;10.85;87.12;99908.22;123260;1109;104187;-85
2023/11/03 00:54:01;;;;;;;22.53;11.47;;;;;;;10.85;87.12;99906.47;123255;1109;104316;-84
2023/11/03 00:56:33;;;;;;;21.97;11.63;;;;;;;10.86;87.08;99903.01;123322;1109;104245;-83
2023/11/03 00:59:05;;;;;;;22.23;11.50;;;;;;;10.87;86.96;99904.77;123203;1109;104283;-83
2023/11/03 01:01:38;;;;;;;23.47;11.53;;;;;;;10.88;87.11;99905.67;123331;1109;104287;-85
2023/11/03 01:04:11;;;;;;;21.62;11.25;;;;;;;10.88;87.36;99901.30;123325;1109;104328;-84
2023/11/03 01:06:42;;;;;;;21.20;10.70;;;;;;;10.89;87.11;99900.46;123368;1108;104255;-84
2023/11/03 01:09:13;;;;;;;24.17;12.00;;;;;;;10.91;87.05;99905.75;123237;1109;104261;-83
2023/11/03 01:11:47;;;;;;;21.07;10.67;;;;;;;10.90;87.34;99898.72;123186;1109;104268;-84
2023/11/03 01:14:19;;;;;;;22.07;12.33;;;;;;;10.90;87.44;99898.72;123237;1109;104290;-83
2023/11/03 01:16:50;;;;;;;22.50;11.13;;;;;;;10.90;87.32;99893.46;123127;1109;104329;-84
2023/11/03 01:19:22;;;;;;;24.07;12.10;;;;;;;10.90;87.20;99888.21;123138;1109;104240;-82
2023/11/03 01:21:53;;;;;;;24.73;11.57;;;;;;;10.90;87.17;99893.46;123133;1107;104287;-81
2023/11/03 01:24:25;;;;;;;22.80;11.70;;;;;;;10.91;87.23;99897.88;123150;1109;104358;-83
2023/11/03 01:26:59;;;;;;;20.90;11.03;;;;;;;10.91;87.18;99895.25;123265;1109;104452;-82
2023/11/03 01:29:30;;;;;;;23.77;11.60;;;;;;;10.91;87.27;99890.88;123023;1108;104271;-81
2023/11/03 01:32:02;;;;;;;21.23;10.80;;;;;;;10.93;87.26;99883.04;123068;1108;104255;-82
2023/11/03 01:34:33;;;;;;;20.40;10.53;;;;;;;10.93;87.24;99883.04;123118;1108;104258;-82
2023/11/03 01:37:05;;;;;;;21.73;10.63;;;;;;;10.94;87.22;99884.83;123120;1109;104322;-84
2023/11/03 01:39:36;;;;;;;22.67;11.07;;;;;;;10.92;86.94;99879.53;123183;1109;104300;-81
2023/11/03 01:42:07;;;;;;;20.43;10.70;;;;;;;10.92;87.08;99878.63;123209;1109;104405;-81
2023/11/03 01:44:39;;;;;;;21.63;11.03;;;;;;;10.92;87.17;99870.75;123209;1108;104376;-80
2023/11/03 01:47:10;;;;;;;20.83;10.70;;;;;;;10.92;87.17;99873.38;123124;1108;104271;-79
2023/11/03 01:49:41;;;;;;;20.47;10.10;;;;;;;10.92;87.00;99874.29;123254;1108;104290;-80
2023/11/03 01:52:15;;;;;;;22.27;11.17;;;;;;;10.93;87.06;99869.91;123390;1109;104351;-81
2023/11/03 01:54:47;;;;;;;21.90;10.77;;;;;;;10.94;87.20;99863.83;123384;1109;104254;-81
2023/11/03 01:57:19;;;;;;;21.03;10.33;;;;;;;10.93;87.42;99865.54;123189;1109;104315;-82
2023/11/03 01:59:52;;;;;;;19.93;10.50;;;;;;;10.92;87.39;99855.91;123162;1109;104429;-79
2023/11/03 02:02:24;;;;;;;23.10;11.90;;;;;;;10.94;87.22;99848.08;123164;1109;104283;-80
2023/11/03 02:04:55;;;;;;;23.20;11.10;;;;;;;10.92;87.38;99844.50;122979;1109;104390;-80
2023/11/03 02:07:26;;;;;;;20.80;10.90;;;;;;;10.89;87.28;99832.22;123002;1108;104392;-78
2023/11/03 02:09:58;;;;;;;20.20;10.37;;;;;;;10.86;87.27;99840.02;123068;1107;104366;-80
2023/11/03 02:12:29;;;;;;;22.17;10.33;;;;;;;10.82;87.37;99850.41;123098;1108;104239;-82
2023/11/03 02:15:00;;;;;;;22.27;10.70;;;;;;;10.78;87.14;99847.70;123105;1109;104290;-82
2023/11/03 02:17:32;;;;;;;24.17;10.87;;;;;;;10.76;87.20;99843.26;123107;1107;104434;-83
2023/11/03 02:20:06;;;;;;;22.53;10.70;;;;;;;10.74;87.11;99847.59;123088;1107;104284;-83
2023/11/03 02:22:38;;;;;;;20.47;10.57;;;;;;;10.71;87.17;99839.64;123268;1109;104335;-82
2023/11/03 02:25:11;;;;;;;20.17;10.40;;;;;;;10.68;87.19;99842.19;123273;1109;104268;-80
2023/11/03 02:27:42;;;;;;;20.50;9.97;;;;;;;10.66;86.90;99847.41;123106;1109;104271;-80
2023/11/03 02:30:14;;;;;;;21.47;10.80;;;;;;;10.65;86.94;99842.12;123144;1109;104370;-80
2023/11/03 02:32:46;;;;;;;20.40;10.30;;;;;;;10.65;87.49;99837.74;123173;1108;104341;-82
2023/11/03 02:35:17;;;;;;;20.07;10.17;;;;;;;10.65;87.45;99832.50;123078;1108;104197;-80
2023/11/03 02:37:48;;;;;;;21.97;10.30;;;;;;;10.64;87.46;99825.46;123094;1108;104370;-81
2023/11/03 02:40:20;;;;;;;20.00;10.83;;;;;;;10.63;87.62;99834.20;123192;1109;104264;-84
2023/11/03 02:42:52;;;;;;;21.03;10.47;;;;;;;10.61;87.45;99830.63;123104;1109;104297;-81
2023/11/03 02:45:23;;;;;;;22.73;10.33;;;;;;;10.59;87.59;99833.22;123166;1109;107097;-82
2023/11/03 02:47:54;;;;;;;18.53;9.80;;;;;;;10.56;86.94;99834.89;123103;1109;104293;-82
2023/11/03 02:50:25;;;;;;;20.07;9.33;;;;;;;10.53;87.34;99835.72;123070;1108;104294;-82
2023/11/03 02:52:57;;;;;;;19.77;9.43;;;;;;;10.52;87.70;99833.06;123185;1109;104296;-80
2023/11/03 02:55:28;;;;;;;18.83;9.30;;;;;;;10.51;87.70;99839.14;123113;1109;118441;-82
2023/11/03 02:57:59;;;;;;;19.55;9.55;;;;;;;10.49;87.53;99836.48;123104;1109;104328;-82
2023/11/03 03:00:30;;;;;;;16.85;9.20;;;;;;;10.50;87.36;99847.84;123133;1109;104294;-82
2023/11/03 03:03:02;;;;;;;18.03;8.93;;;;;;;10.48;87.11;99847.81;123085;1109;104373;-81
2023/11/03 03:05:34;;;;;;;18.77;9.03;;;;;;;10.46;87.45;99853.89;123217;1109;104226;-81
2023/11/03 03:08:06;;;;;;;21.87;9.60;;;;;;;10.45;87.43;99862.59;123150;1109;104320;-82
2023/11/03 03:10:37;;;;;;;18.97;8.70;;;;;;;10.43;87.82;99852.06;123218;1109;104273;-82
2023/11/03 03:13:08;;;;;;;18.97;9.17;;;;;;;10.43;87.73;99863.42;123154;1108;104296;-80
2023/11/03 03:15:39;;;;;;;20.23;8.70;;;;;;;10.43;87.45;99860.80;123084;1107;104380;-81
2023/11/03 03:18:11;;;;;;;18.13;8.60;;;;;;;10.45;87.73;99866.09;123137;1109;104303;-83
2023/11/03 03:20:42;;;;;;;18.57;8.97;;;;;;;10.47;88.00;99868.75;123028;1109;104213;-83
2023/11/03 03:23:13;;;;;;;17.57;8.97;;;;;;;10.48;87.40;99862.67;123171;1109;104338;-82
2023/11/03 03:25:45;;;;;;;16.73;8.27;;;;;;;10.49;87.79;99862.71;123182;1109;104724;-82
2023/11/03 03:28:16;;;;;;;20.07;8.73;;;;;;;10.50;87.75;99850.47;123045;1109;104377;-82
2023/11/03 03:30:48;;;;;;;19.23;8.87;;;;;;;10.52;88.05;99854.92;123198;1108;104392;-83
2023/11/03 03:33:19;;;;;;;15.50;7.90;;;;;;;10.53;87.78;99850.55;123080;1108;104367;-83
2023/11/03 03:35:51;;;;;;;17.67;8.57;;;;;;;10.53;88.08;99837.44;123074;1109;104853;-81
2023/11/03 03:38:22;;;;;;;17.77;8.20;;;;;;;10.53;88.11;99837.44;123086;1109;104271;-80
2023/11/03 03:40:54;;;;;;;18.10;7.83;;;;;;;10.53;88.13;99840.97;123156;1109;104303;-81
2023/11/03 03:43:26;;;;;;;17.80;8.00;;;;;;;10.53;87.62;99848.84;123214;1109;104753;-83
2023/11/03 03:45:57;;;;;;;17.23;7.97;;;;;;;10.52;87.81;99835.68;123165;1109;104366;-82
2023/11/03 03:48:29;;;;;;;15.70;8.17;;;;;;;10.51;87.88;99836.52;123291;1109;104405;-82
2023/11/03 03:51:00;;;;;;;15.90;8.40;;;;;;;10.50;87.80;99832.11;123270;1109;104322;-82
2023/11/03 03:53:32;;;;;;;13.23;7.07;;;;;;;10.47;87.88;99829.41;123116;1109;104216;-82
2023/11/03 03:56:03;;;;;;;16.30;7.60;;;;;;;10.46;87.79;99830.28;123177;1109;104383;-81
2023/11/03 03:58:34;;;;;;;15.90;7.47;;;;;;;10.42;87.96;99826.67;123246;1108;105216;-82
2023/11/03 04:01:07;;;;;;;17.65;7.45;;;;;;;10.39;87.60;99822.25;123088;1109;104412;-80
2023/11/03 04:03:39;;;;;;;16.73;7.80;;;;;;;10.36;88.00;99824.80;123247;1109;104238;-81
2023/11/03 04:06:13;;;;;;;18.73;7.53;;;;;;;10.35;88.15;99823.02;123244;1109;104264;-83
2023/11/03 04:08:44;;;;;;;16.50;7.83;;;;;;;10.32;87.63;99820.28;123275;1107;104287;-80
2023/11/03 04:11:15;;;;;;;15.60;7.40;;;;;;;10.31;88.19;99834.23;123078;1109;104425;-80
2023/11/03 04:13:47;;;;;;;13.70;6.93;;;;;;;10.31;87.65;99834.23;123207;1109;104425;-84
2023/11/03 04:16:18;;;;;;;15.17;7.33;;;;;;;10.31;87.90;99831.60;123261;1109;104261;-84
2023/11/03 04:18:50;;;;;;;14.87;7.43;;;;;;;10.31;88.04;99826.36;123086;1109;104258;-82
2023/11/03 04:21:21;;;;;;;17.30;7.63;;;;;;;10.34;87.91;99830.84;123100;1109;104267;-80
2023/11/03 04:23:52;;;;;;;16.20;7.70;;;;;;;10.35;88.09;99824.76;123071;1109;104416;-82
2023/11/03 04:26:24;;;;;;;14.87;7.37;;;;;;;10.35;87.70;99828.26;123119;1109;104395;-82
2023/11/03 04:28:55;;;;;;;15.37;7.70;;;;;;;10.36;87.93;99821.27;123130;1109;104395;-82
2023/11/03 04:31:26;;;;;;;17.40;7.53;;;;;;;10.37;88.38;99823.93;123230;1109;104335;-84
2023/11/03 04:33:58;;;;;;;18.27;7.93;;;;;;;10.36;87.59;99821.27;123307;1108;104201;-81
2023/11/03 04:36:29;;;;;;;17.73;7.73;;;;;;;10.37;88.07;99815.19;123229;1109;104381;-85
2023/11/03 04:39:01;;;;;;;14.15;7.15;;;;;;;10.36;87.95;99813.40;123165;1109;104638;-84
2023/11/03 04:41:32;;;;;;;14.23;7.13;;;;;;;10.36;87.39;99811.69;123190;1109;104284;-81
2023/11/03 04:44:03;;;;;;;17.90;7.47;;;;;;;10.35;87.48;99804.66;123232;1109;104304;-82
2023/11/03 04:46:35;;;;;;;17.33;7.67;;;;;;;10.35;87.72;99809.90;123169;1109;104197;-84
2023/11/03 04:49:07;;;;;;;14.50;7.00;;;;;;;10.35;88.02;99802.03;123304;1109;104309;-84
2023/11/03 04:51:40;;;;;;;20.23;7.70;;;;;;;10.35;87.97;99794.16;123213;1109;104313;-83
2023/11/03 04:54:11;;;;;;;15.07;7.53;;;;;;;10.35;88.14;99791.55;123210;1109;104258;-83
2023/11/03 04:56:44;;;;;;;15.17;7.47;;;;;;;10.35;87.88;99790.66;123309;1108;104342;-84
2023/11/03 04:59:15;;;;;;;16.70;7.63;;;;;;;10.36;88.14;99797.66;123350;1108;104281;-84
2023/11/03 05:01:47;;;;;;;16.75;7.50;;;;;;;10.35;88.24;99803.78;123219;1109;104295;-84
2023/11/03 05:04:19;;;;;;;16.73;6.87;;;;;;;10.37;88.31;99802.07;123192;1109;104367;-84
2023/11/03 05:06:50;;;;;;;17.00;6.83;;;;;;;10.38;88.08;99799.48;123325;1109;104287;-83
2023/11/03 05:09:21;;;;;;;15.13;7.33;;;;;;;10.40;88.23;99791.66;123453;1109;104747;-83
2023/11/03 05:11:53;;;;;;;15.53;6.80;;;;;;;10.42;88.44;99790.86;123276;1109;104287;-82
2023/11/03 05:14:24;;;;;;;17.13;7.43;;;;;;;10.45;88.34;99789.16;123332;1109;104278;-84
2023/11/03 05:16:55;;;;;;;14.33;6.70;;;;;;;10.48;88.36;99786.61;123632;1108;104457;-85
2023/11/03 05:19:27;;;;;;;14.53;6.73;;;;;;;10.51;88.08;99784.94;123704;1109;104267;-83
2023/11/03 05:21:59;;;;;;;15.67;7.13;;;;;;;10.55;88.59;99783.26;123584;1109;104268;-82
2023/11/03 05:24:30;;;;;;;16.20;7.40;;;;;;;10.59;88.33;99777.25;123333;1109;104271;-82
2023/11/03 05:27:01;;;;;;;14.90;6.50;;;;;;;10.64;88.39;99785.23;123481;1109;104265;-83
2023/11/03 05:29:34;;;;;;;16.13;7.53;;;;;;;10.67;88.48;99785.30;123770;1109;104306;-81
2023/11/03 05:32:06;;;;;;;15.60;6.83;;;;;;;10.70;88.36;99780.13;123556;1109;104217;-81
2023/11/03 05:34:37;;;;;;;14.70;6.90;;;;;;;10.76;88.55;99780.27;123322;1109;104287;-80
2023/11/03 05:37:09;;;;;;;16.20;7.30;;;;;;;10.79;88.51;99775.97;123198;1109;104287;-80
2023/11/03 05:39:41;;;;;;;16.43;7.00;;;;;;;10.82;88.65;99774.30;123250;1108;104329;-79
2023/11/03 05:42:12;;;;;;;15.63;7.30;;;;;;;10.84;88.12;99770.83;123305;1109;104214;-81
2023/11/03 05:44:43;;;;;;;16.83;7.30;;;;;;;10.85;88.55;99774.36;123447;1107;104290;-79
2023/11/03 05:47:15;;;;;;;14.57;6.83;;;;;;;10.86;88.32;99774.41;123282;1109;104267;-80
2023/11/03 05:49:46;;;;;;;15.50;6.97;;;;;;;10.85;88.17;99771.74;123625;1109;104335;-77
2023/11/03 05:52:17;;;;;;;14.37;6.37;;;;;;;10.87;88.31;99767.41;124011;1109;104175;-77
2023/11/03 05:54:49;;;;;;;15.83;6.60;;;;;;;10.89;88.21;99763.97;124494;1108;104162;-79
2023/11/03 05:57:20;;;;;;;15.57;7.23;;;;;;;10.92;88.09;99755.26;124285;1109;103464;-83
2023/11/03 05:59:51;;;;;;;13.53;6.90;;;;;;;10.94;88.32;99758.83;123534;1108;104296;-80
2023/11/03 06:02:23;;;;;;;15.97;6.90;;;;;;;10.96;88.17;99760.61;123610;1109;104274;-81
2023/11/03 06:04:54;;;;;;;17.97;7.30;;;;;;;10.99;88.30;99767.68;123777;1109;104373;-82
2023/11/03 06:07:25;;;;;;;14.87;6.43;;;;;;;10.99;88.00;99762.43;123676;1109;104373;-77
2023/11/03 06:09:57;;;;;;;17.03;6.63;;;;;;;11.02;88.08;99766.88;123998;1109;104198;-79
2023/11/03 06:12:28;;;;;;;13.58;6.72;;;;;;;11.02;88.04;99775.62;115399;1109;10000895;-79
2023/11/03 06:15:00;;;;;;;14.30;6.73;;;;;;;11.03;88.19;99774.78;123719;1109;104639;-78
2023/11/03 06:17:31;;;;;;;16.30;7.50;;;;;;;11.07;88.05;99775.73;124034;1109;104354;-78
2023/11/03 06:20:03;;;;;;;12.95;6.55;;;;;;;11.13;88.38;99773.23;123958;1109;104264;-78
2023/11/03 06:22:34;;;;;;;14.53;6.63;;;;;;;11.16;88.28;99760.17;124125;1107;102397;-78
2023/11/03 06:25:07;;;;;;;14.70;7.00;;;;;;;11.20;88.20;99754.11;124148;1107;104290;-77
2023/11/03 06:27:38;;;;;;;;;;;;;;;11.22;87.91;99759.40;124308;1109;104243;-79
2023/11/03 06:30:12;;;;;;;15.20;6.90;;;;;;;11.23;87.84;99759.44;124177;1109;104255;-78
2023/11/03 06:32:42;;;;;;;;;;;;;;;11.24;87.89;99757.72;124937;1109;102150;-78
2023/11/03 06:35:14;;;;;;;14.37;6.97;;;;;;;11.26;88.08;99763.88;124203;1108;104255;-79
2023/11/03 06:37:45;;;;;;;16.47;7.90;;;;;;;11.29;87.81;99766.56;124064;1109;104200;-82
2023/11/03 06:40:18;;;;;;;14.77;7.17;;;;;;;11.32;87.92;99762.25;123940;1109;104325;-78
2023/11/03 06:42:52;;;;;;;15.95;7.25;;;;;;;11.34;88.08;99759.66;123951;1108;101916;-80
2023/11/03 06:45:24;;;;;;;16.00;7.30;;;;;;;11.40;87.84;99766.79;124177;1108;104249;-79
2023/11/03 06:47:57;;;;;;;15.10;7.43;;;;;;;11.49;88.10;99764.36;124032;1108;102354;-82
2023/11/03 06:50:29;;;;;;;15.18;6.78;;;;;;;11.50;88.25;99750.37;124225;1108;103163;-80
2023/11/03 06:53:00;;;;;;;16.33;7.60;;;;;;;11.67;88.46;99755.93;124081;1109;105593;-78
2023/11/03 06:55:33;;;;;;;17.65;7.25;;;;;;;11.77;88.20;99750.00;123949;1109;104230;-79
2023/11/03 06:58:11;;;;;;;14.83;6.93;;;;;;;11.86;88.04;99750.17;124173;1109;103321;-78
2023/11/03 07:00:46;;;;;;;16.17;7.60;;;;;;;11.95;87.94;99751.23;124299;1109;104270;-78
2023/11/03 07:03:20;;;;;;;17.07;7.23;;;;;;;12.10;88.05;99740.11;124296;1109;104271;-77
2023/11/03 07:05:56;;;;;;;19.57;7.90;;;;;;;12.20;88.30;99742.02;124179;1109;104095;-79
2023/11/03 07:08:36;;;;;;;16.27;7.40;;;;;;;12.29;87.89;99739.54;124495;1108;102237;-77
2023/11/03 07:11:10;;;;;;;20.30;7.70;;;;;;;12.37;88.16;99737.03;124487;1109;104201;-79
2023/11/03 07:13:43;;;;;;;19.53;7.67;;;;;;;12.45;88.28;99734.53;124727;1109;102266;-78
2023/11/03 07:16:17;;;;;;;13.60;7.00;;;;;;;12.50;87.77;99744.28;125580;1108;102661;-78
2023/11/03 07:18:51;;;;;;;14.37;7.10;;;;;;;12.58;87.97;99734.75;125562;1108;101970;-77
2023/11/03 07:21:29;;;;;;;16.17;6.92;;;;;;;12.63;87.60;99728.68;124509;1107;102029;-77
2023/11/03 07:24:08;;;;;;;14.35;7.00;;;;;;;12.70;87.89;99730.52;124232;1109;104216;-81
2023/11/03 07:26:43;;;;;;;16.13;7.33;;;;;;;12.74;88.09;99733.22;125583;1109;103646;-83
2023/11/03 07:32:18;;;;;;;15.17;7.23;;;;;;;12.82;87.34;99741.23;125620;1108;107127;-78
2023/11/03 07:34:50;;;;;;;13.40;6.80;;;;;;;12.85;87.36;99736.01;125580;1107;102726;-80
2023/11/03 07:40:30;;;;;;;15.83;7.33;;;;;;;12.93;87.06;99729.13;125559;1108;103075;-79
2023/11/03 07:43:02;;;;;;;15.63;7.00;;;;;;;12.96;87.41;99733.53;125669;1109;102512;-78
2023/11/03 07:45:34;;;;;;;16.80;6.97;;;;;;;12.97;87.34;99750.23;125640;1108;102008;-77
2023/11/03 07:48:08;;;;;;;18.90;6.87;;;;;;;12.98;87.48;99742.36;124540;1107;102074;-77
2023/11/03 07:50:39;;;;;;;15.40;7.07;;;;;;;13.00;87.15;99758.18;124247;1109;102436;-80
2023/11/03 07:53:25;;;;;;;16.97;7.67;;;;;;;13.03;87.71;99756.47;124181;1108;103649;-79
2023/11/03 07:55:59;;;;;;;16.20;7.37;;;;;;;13.08;87.85;99751.27;124129;1109;104350;-80
2023/11/03 07:58:32;;;;;;;19.57;8.10;;;;;;;13.10;87.07;99760.97;124151;1109;104069;-80
2023/11/03 08:01:13;;;;;;;16.63;7.20;;;;;;;13.17;87.74;99748.75;124213;1109;101998;-78
2023/11/03 08:03:47;;;;;;;16.87;7.67;;;;;;;13.31;88.30;99741.90;124169;1108;104092;-77
2023/11/03 08:06:23;;;;;;;13.73;7.07;;;;;;;13.44;88.42;99752.62;124252;1109;104319;-78
2023/11/03 08:09:01;;;;;;;15.23;6.87;;;;;;;13.58;88.08;99739.61;124546;1109;104303;-77
2023/11/03 08:11:35;;;;;;;17.53;7.47;;;;;;;13.73;87.88;99745.05;124230;1108;104230;-82
2023/11/03 08:14:07;;;;;;;14.43;7.12;;;;;;;13.87;88.21;99746.94;124114;1108;104242;-77
2023/11/03 08:16:45;;;;;;;14.03;7.07;;;;;;;13.96;87.79;99741.75;124325;1109;104305;-77
2023/11/03 08:19:16;;;;;;;16.73;6.60;;;;;;;14.05;87.47;99746.25;124902;1108;104350;-77
2023/11/03 08:21:48;;;;;;;15.50;7.35;;;;;;;14.12;87.13;99748.95;124465;1109;104728;-78
2023/11/03 08:24:21;;;;;;;15.63;7.25;;;;;;;14.19;87.75;99744.61;124091;1109;102811;-77
2023/11/03 08:27:12;;;;;;;15.07;6.77;;;;;;;14.24;88.20;99753.44;124164;1109;104762;-76
2023/11/03 08:29:45;;;;;;;13.87;6.73;;;;;;;14.27;87.61;99744.67;124052;1109;104278;-81
2023/11/03 08:32:17;;;;;;;14.23;6.40;;;;;;;14.24;87.44;99736.73;124104;1109;104332;-76
2023/11/03 08:34:51;;;;;;;17.33;6.83;;;;;;;14.33;87.87;99742.09;124224;1108;103130;-76
2023/11/03 08:37:28;;;;;;;19.37;6.70;;;;;;;14.38;87.65;99738.62;124005;1109;104443;-77
2023/11/03 08:40:01;;;;;;;14.73;6.43;;;;;;;14.43;88.09;99743.95;124155;1109;104290;-76
2023/11/03 08:42:38;;;;;;;15.43;6.30;;;;;;;14.44;87.48;99735.13;124229;1107;104329;-77
2023/11/03 08:45:13;;;;;;;15.83;6.80;;;;;;;14.48;87.05;99725.51;124221;1109;104353;-77
2023/11/03 08:47:44;;;;;;;13.63;6.23;;;;;;;14.51;87.55;99722.89;124222;1109;102929;-80
2023/11/03 08:50:17;;;;;;;11.93;5.70;;;;;;;14.52;87.54;99717.63;124122;1109;104278;-77
2023/11/03 08:53:03;;;;;;;15.63;6.50;;;;;;;14.54;86.83;99704.44;124288;1109;103976;-77
2023/11/03 08:55:34;;;;;;;12.73;5.70;;;;;;;14.55;87.61;99699.16;124332;1109;104195;-79
2023/11/03 08:58:07;;;;;;;13.97;5.90;;;;;;;14.56;86.96;99689.48;124179;1108;104281;-79
2023/11/03 09:00:40;;;;;;;13.90;6.23;;;;;;;14.60;87.35;99670.19;124234;1107;102791;-80
2023/11/03 09:03:11;;;;;;;15.03;5.80;;;;;;;14.62;87.42;99657.00;124194;1109;104264;-80
2023/11/03 09:05:43;;;;;;;17.17;6.50;;;;;;;14.67;87.72;99650.84;124361;1109;104287;-80
2023/11/03 09:08:15;;;;;;;16.70;6.13;;;;;;;14.70;86.93;99645.58;124296;1109;104243;-77
2023/11/03 09:10:50;;;;;;;19.43;6.20;;;;;;;14.72;87.36;99630.66;124413;1109;103770;-81
2023/11/03 09:13:24;;;;;;;11.70;5.87;;;;;;;14.77;87.25;99616.56;124534;1109;104301;-77
2023/11/03 09:16:00;;;;;;;16.20;6.30;;;;;;;14.80;87.62;99606.02;124179;1108;102183;-78
2023/11/03 09:18:31;;;;;;;12.73;6.10;;;;;;;14.80;86.83;99614.81;124232;1109;104287;-80
2023/11/03 09:21:11;;;;;;;18.17;7.00;;;;;;;14.81;86.82;99613.08;124025;1109;104312;-79
2023/11/03 09:23:47;;;;;;;15.23;6.80;;;;;;;14.81;87.24;99615.72;124227;1109;102087;-81
2023/11/03 09:26:19;;;;;;;15.13;7.00;;;;;;;14.83;86.99;99622.75;123984;1109;104376;-81
2023/11/03 09:28:52;;;;;;;19.13;7.00;;;;;;;14.86;86.63;99619.25;124023;1109;104271;-82
2023/11/03 09:31:24;;;;;;;15.63;7.20;;;;;;;14.88;86.72;99628.05;124091;1109;104188;-77
2023/11/03 09:33:58;;;;;;;16.00;6.53;;;;;;;14.90;87.46;99632.47;124098;1108;104233;-79
2023/11/03 09:36:30;;;;;;;16.50;7.33;;;;;;;14.91;87.33;99628.97;124052;1109;102671;-78
2023/11/03 09:39:06;;;;;;;14.90;6.50;;;;;;;14.92;87.21;99632.48;124025;1109;104184;-79
2023/11/03 09:41:48;;;;;;;19.20;7.45;;;;;;;14.94;87.17;99640.41;124162;1109;104240;-78
2023/11/03 09:44:22;;;;;;;15.43;6.70;;;;;;;14.95;87.26;99623.70;124106;1109;104367;-79
2023/11/03 09:47:07;;;;;;;16.63;6.23;;;;;;;14.96;87.23;99613.14;124254;1109;102085;-85
2023/11/03 09:49:39;;;;;;;11.20;6.00;;;;;;;15.03;86.66;99614.91;124017;1109;104338;-82
2023/11/03 09:52:14;;;;;;;15.67;6.10;;;;;;;15.10;86.97;99616.70;123849;1109;102684;-80
2023/11/03 09:54:46;;;;;;;16.73;7.10;;;;;;;15.18;86.69;99600.00;123822;1109;104469;-76
2023/11/03 09:57:20;;;;;;;15.97;6.20;;;;;;;15.22;86.63;99588.53;123995;1108;104175;-79
2023/11/03 10:02:44;;;;;;;15.73;6.87;;;;;;;15.40;86.84;99580.64;124144;1109;104179;-76
2023/11/03 10:05:17;;;;;;;13.60;6.00;;;;;;;15.53;87.25;99576.24;124107;1109;102768;-77
2023/11/03 10:08:07;;;;;;;13.93;6.13;;;;;;;15.66;86.66;99563.93;124249;1106;103288;-77
2023/11/03 10:10:39;;;;;;;18.25;6.65;;;;;;;15.76;87.34;99557.73;123943;1109;102514;-79
2023/11/03 10:13:11;;;;;;;11.50;5.50;;;;;;;15.87;86.85;99543.67;124142;1108;104569;-79
2023/11/03 10:15:44;;;;;;;11.53;5.20;;;;;;;16.01;86.49;99535.71;124255;1109;104271;-78
2023/11/03 10:18:17;;;;;;;11.20;4.97;;;;;;;16.07;86.67;99531.28;124311;1109;103747;-76
2023/11/03 10:20:54;;;;;;;13.33;5.20;;;;;;;16.16;85.88;99538.33;124347;1108;102842;-78
2023/11/03 10:23:27;;;;;;;13.10;5.10;;;;;;;16.21;86.28;99530.38;124184;1108;102174;-78
2023/11/03 10:25:59;;;;;;;12.40;4.77;;;;;;;16.23;85.54;99533.89;124089;1109;104357;-79
2023/11/03 10:28:32;;;;;;;14.00;4.80;;;;;;;16.26;85.31;99531.23;124109;1109;104184;-77
2023/11/03 10:31:05;;;;;;;15.73;5.20;;;;;;;16.31;85.96;99540.94;124303;1109;104255;-77
2023/11/03 10:33:36;;;;;;;13.70;4.40;;;;;;;16.33;85.06;99527.66;124363;1107;103125;-77
2023/11/03 10:36:09;;;;;;;11.60;4.50;;;;;;;16.34;84.86;99519.72;124705;1108;104207;-74
2023/11/03 10:38:41;;;;;;;10.38;4.60;;;;;;;16.35;85.03;99517.97;124429;1109;102033;-75
2023/11/03 10:41:16;;;;;;;12.47;4.67;;;;;;;16.37;84.49;99512.67;124167;1109;103546;-76
2023/11/03 10:43:57;;;;;;;9.73;4.50;;;;;;;16.42;84.54;99510.88;124076;1109;104214;-78
2023/11/03 10:46:37;;;;;;;10.70;4.93;;;;;;;16.47;83.94;99502.04;124311;1109;102435;-77
2023/11/03 10:49:30;;;;;;;11.40;4.50;;;;;;;16.50;83.56;99496.73;124109;1109;104278;-77
2023/11/03 10:52:09;;;;;;;10.10;4.50;;;;;;;16.55;83.53;99478.17;123944;1108;104297;-78
2023/11/03 10:55:00;;;;;;;10.63;4.90;;;;;;;16.52;83.10;99473.77;124197;1109;104310;-77
2023/11/03 10:57:36;;;;;;;11.83;4.40;;;;;;;16.52;83.19;99476.41;125637;1108;102146;-78
2023/11/03 11:00:17;;;;;;;11.33;4.73;;;;;;;16.57;82.81;99470.22;125611;1108;101868;-76
2023/11/03 11:02:59;;;;;;;7.00;4.07;;;;;;;16.57;82.73;99476.39;125583;1107;102519;-77
2023/11/03 11:05:41;;;;;;;11.17;4.60;;;;;;;16.57;82.14;99472.88;125146;1109;103246;-79
2023/11/03 11:08:17;;;;;;;9.20;4.40;;;;;;;16.63;81.93;99492.25;123988;1109;102256;-76
2023/11/03 11:10:48;;;;;;;7.47;3.83;;;;;;;16.76;81.97;99506.30;124195;1109;104288;-78
2023/11/03 11:13:22;;;;;;;8.33;3.97;;;;;;;16.83;82.14;99515.98;124168;1108;104265;-78
2023/11/03 11:16:08;;;;;;;12.10;4.62;;;;;;;16.89;81.41;99515.98;125625;1106;101962;-78
2023/11/03 11:18:56;;;;;;;12.17;4.00;;;;;;;16.96;81.68;99502.70;125587;1107;102292;-76
2023/11/03 11:21:44;;;;;;;9.83;3.92;;;;;;;17.04;80.92;99487.62;124315;1109;102807;-78
2023/11/03 11:24:21;;;;;;;8.83;4.00;;;;;;;17.09;80.75;99475.20;125709;1107;102547;-79
2023/11/03 11:27:11;;;;;;;10.60;3.83;;;;;;;17.15;80.94;99458.39;125583;1108;107771;-79
2023/11/03 11:29:43;;;;;;;7.87;3.93;;;;;;;17.20;80.49;99457.48;125364;1108;102465;-77
2023/11/03 11:32:19;;;;;;;8.97;4.23;;;;;;;17.22;79.81;99460.98;125635;1108;101887;-76
2023/11/03 11:35:00;;;;;;;8.07;4.03;;;;;;;17.24;79.53;99448.59;125518;1108;102032;-78
2023/11/03 11:37:37;;;;;;;11.10;4.07;;;;;;;17.29;79.51;99450.33;125589;1108;118450;-78
2023/11/03 11:40:12;;;;;;;16.47;4.50;;;;;;;17.37;79.43;99445.83;125452;1107;103430;-78
2023/11/03 11:42:45;;;;;;;11.20;4.30;;;;;;;17.42;78.93;99426.34;124387;1109;103143;-77
2023/11/03 11:45:20;;;;;;;9.07;4.57;;;;;;;17.47;78.79;99438.66;124271;1108;104268;-79